Time;durP1;ratioP1;P1;durP2;ratioP2;P2;SDS_P1;SDS_P2;PMS_P1;PMS_P2;Temp;Humidity;BMP_temperature;BMP_pressure;BME280_temperature;BME280_humidity;BME280_pressure;Samples;Min_cycle;Max_cycle;Signal;HPM_P1;HPM_P2
2022/04/01 00:00:45;;;;;;;2.90;1.60;;;22.70;36.70;;;;;;5032164;28;20383;-67
2022/04/01 00:03:11;;;;;;;2.33;1.52;;;22.70;36.60;;;;;;5031729;28;20398;-66
2022/04/01 00:05:39;;;;;;;2.30;1.67;;;22.70;36.60;;;;;;5032058;28;20388;-65
2022/04/01 00:08:05;;;;;;;2.25;1.30;;;22.70;36.60;;;;;;5032067;28;20391;-66
2022/04/01 00:10:31;;;;;;;2.13;1.50;;;22.70;36.60;;;;;;5031909;28;20729;-66
2022/04/01 00:12:56;;;;;;;2.77;1.40;;;22.70;36.50;;;;;;5031260;28;20890;-66
2022/04/01 00:15:22;;;;;;;2.05;1.40;;;22.70;36.50;;;;;;5031888;28;20474;-66
2022/04/01 00:17:48;;;;;;;2.28;1.40;;;22.70;36.50;;;;;;5031768;28;20453;-67
2022/04/01 00:20:14;;;;;;;2.92;1.30;;;22.70;36.50;;;;;;5031746;28;20383;-66
2022/04/01 00:22:43;;;;;;;1.98;1.30;;;22.70;36.40;;;;;;5031742;28;20399;-66
2022/04/01 00:25:09;;;;;;;2.35;1.20;;;22.70;36.40;;;;;;5031238;28;20444;-67
2022/04/01 00:27:35;;;;;;;2.13;1.20;;;22.70;36.40;;;;;;5031619;28;20478;-66
2022/04/01 00:30:01;;;;;;;2.08;1.30;;;22.70;36.40;;;;;;5030390;28;20487;-66
2022/04/01 00:32:29;;;;;;;1.80;1.30;;;22.70;36.40;;;;;;5031796;28;20403;-66
2022/04/01 00:34:55;;;;;;;2.58;1.17;;;22.70;36.30;;;;;;5030192;28;20395;-66
2022/04/01 00:37:22;;;;;;;2.10;1.15;;;22.70;36.30;;;;;;5031189;28;20749;-66
2022/04/01 00:39:47;;;;;;;1.90;1.00;;;22.70;36.30;;;;;;5031644;28;20372;-66
2022/04/01 00:42:13;;;;;;;2.40;1.10;;;22.70;36.20;;;;;;5031541;28;20402;-66
2022/04/01 00:44:40;;;;;;;1.58;1.00;;;22.70;36.30;;;;;;5031265;28;20449;-67
2022/04/01 00:47:09;;;;;;;1.73;1.02;;;22.80;36.20;;;;;;5030844;28;20410;-66
2022/04/01 00:49:35;;;;;;;1.70;1.00;;;22.80;36.10;;;;;;5031261;28;20389;-66
2022/04/01 00:52:06;;;;;;;2.17;1.25;;;22.80;36.10;;;;;;5030905;28;20469;-66
2022/04/01 00:54:32;;;;;;;1.83;1.00;;;22.80;36.00;;;;;;5031368;28;20386;-67
2022/04/01 00:56:59;;;;;;;1.80;1.08;;;22.80;35.90;;;;;;5013341;28;20411;-67
2022/04/01 00:59:25;;;;;;;1.67;1.10;;;22.90;35.90;;;;;;5030926;28;20498;-66
2022/04/01 01:01:50;;;;;;;1.55;1.10;;;22.90;35.80;;;;;;5031283;28;20488;-66
2022/04/01 01:04:19;;;;;;;1.67;0.90;;;22.80;35.80;;;;;;5031378;28;20884;-66
2022/04/01 01:06:47;;;;;;;1.90;1.00;;;22.90;35.90;;;;;;5031320;28;20387;-66
2022/04/01 01:09:14;;;;;;;1.45;0.90;;;22.90;35.90;;;;;;5012839;28;20392;-66
2022/04/01 01:11:40;;;;;;;1.77;1.00;;;22.90;35.80;;;;;;5031204;28;20395;-66
2022/04/01 01:14:13;;;;;;;1.40;1.00;;;22.90;35.80;;;;;;5031065;28;20795;-66
2022/04/01 01:16:41;;;;;;;0.98;0.80;;;22.90;35.80;;;;;;5029909;28;20407;-66
2022/04/01 01:19:10;;;;;;;1.25;0.80;;;22.80;35.70;;;;;;5030509;28;20411;-66
2022/04/01 01:21:36;;;;;;;1.20;0.77;;;22.90;35.80;;;;;;5031239;28;20387;-67
2022/04/01 01:24:04;;;;;;;1.30;0.88;;;22.90;35.70;;;;;;5029785;28;20426;-66
2022/04/01 01:26:32;;;;;;;1.20;0.80;;;22.90;35.60;;;;;;5030825;28;20414;-66
2022/04/01 01:28:58;;;;;;;1.30;0.90;;;22.90;35.60;;;;;;5030936;28;20478;-66
2022/04/01 01:31:25;;;;;;;1.45;0.80;;;22.90;35.70;;;;;;5030861;28;20390;-67
2022/04/01 01:33:53;;;;;;;1.50;1.00;;;22.80;35.60;;;;;;5029947;28;20747;-66
2022/04/01 01:36:18;;;;;;;1.40;0.80;;;22.80;35.60;;;;;;5031031;28;20387;-66
2022/04/01 01:38:44;;;;;;;1.50;0.90;;;22.80;35.70;;;;;;5031051;28;20432;-67
2022/04/01 01:41:10;;;;;;;1.05;0.70;;;22.80;35.70;;;;;;5030542;28;20383;-67
2022/04/01 01:43:36;;;;;;;1.67;0.83;;;22.80;35.70;;;;;;5030697;28;20422;-67
2022/04/01 01:46:01;;;;;;;1.17;0.63;;;22.90;35.60;;;;;;5030562;28;20453;-67
2022/04/01 01:48:27;;;;;;;1.10;0.70;;;22.90;35.60;;;;;;5030908;28;20396;-66
2022/04/01 01:56:22;;;;;;;0.95;0.60;;;22.80;35.60;;;;;;5030756;28;20402;-66
2022/04/01 01:58:48;;;;;;;1.60;0.80;;;22.80;36.20;;;;;;5016447;28;20422;-66
2022/04/01 02:01:14;;;;;;;1.10;0.65;;;22.80;35.50;;;;;;5032788;28;20391;-66
2022/04/01 02:03:39;;;;;;;0.98;0.60;;;22.80;35.70;;;;;;5034360;28;20486;-66
2022/04/01 02:06:05;;;;;;;1.13;0.60;;;22.80;35.60;;;;;;5016616;28;20383;-66
2022/04/01 02:08:31;;;;;;;1.73;0.60;;;22.80;35.50;;;;;;5034200;28;20395;-66
2022/04/01 02:10:57;;;;;;;1.47;0.70;;;22.90;35.40;;;;;;5016578;28;20396;-66
2022/04/01 02:13:23;;;;;;;1.23;0.80;;;22.90;35.30;;;;;;5032507;28;20387;-66
2022/04/01 02:15:50;;;;;;;0.90;0.70;;;22.90;35.20;;;;;;5016457;28;20458;-66
2022/04/01 02:18:16;;;;;;;0.98;0.60;;;22.90;35.30;;;;;;5033998;28;20457;-66
2022/04/01 02:20:42;;;;;;;0.97;0.53;;;22.90;35.20;;;;;;5032880;28;20472;-67
2022/04/01 02:23:08;;;;;;;1.17;0.70;;;22.90;35.40;;;;;;5033551;28;20393;-66
2022/04/01 02:25:34;;;;;;;1.00;0.65;;;22.80;35.30;;;;;;5033735;28;20387;-66
2022/04/01 02:28:00;;;;;;;1.00;0.80;;;22.80;35.20;;;;;;5033751;28;20406;-66
2022/04/01 02:30:25;;;;;;;0.90;0.60;;;22.80;35.10;;;;;;5033855;28;20383;-66
2022/04/01 02:32:52;;;;;;;1.02;0.70;;;22.80;35.10;;;;;;5033590;28;20399;-67
2022/04/01 02:35:18;;;;;;;0.80;0.60;;;22.90;35.20;;;;;;5033285;28;20441;-66
2022/04/01 02:37:44;;;;;;;1.10;0.60;;;22.90;35.20;;;;;;5032282;28;20509;-66
2022/04/01 02:40:11;;;;;;;1.30;0.90;;;22.80;35.20;;;;;;5033445;28;20409;-66
2022/04/01 02:42:37;;;;;;;1.00;0.60;;;22.80;35.20;;;;;;5033545;28;20398;-66
2022/04/01 02:45:03;;;;;;;1.07;0.70;;;22.80;35.10;;;;;;5033423;28;20541;-66
2022/04/01 02:47:31;;;;;;;1.10;0.73;;;22.80;35.10;;;;;;5032648;28;20479;-66
2022/04/01 02:49:57;;;;;;;1.03;0.80;;;22.80;35.10;;;;;;5033610;28;20971;-66
2022/04/01 02:52:22;;;;;;;1.00;0.70;;;22.80;35.10;;;;;;5033459;28;20434;-67
2022/04/01 02:54:48;;;;;;;1.00;0.70;;;22.80;35.10;;;;;;5033284;28;20867;-66
2022/04/01 02:57:14;;;;;;;1.23;0.80;;;22.80;35.10;;;;;;5032664;28;20415;-66
2022/04/01 02:59:39;;;;;;;1.10;0.73;;;22.80;35.50;;;;;;5032987;28;20486;-67
2022/04/01 03:02:05;;;;;;;1.80;0.87;;;22.80;35.00;;;;;;5032985;28;20398;-66
2022/04/01 03:04:31;;;;;;;1.20;0.70;;;22.80;34.90;;;;;;5033460;28;20477;-66
2022/04/01 03:06:56;;;;;;;0.97;0.60;;;22.80;34.90;;;;;;5032015;28;20981;-66
2022/04/01 03:09:22;;;;;;;1.00;0.60;;;22.80;35.00;;;;;;5032683;28;20387;-66
2022/04/01 03:11:48;;;;;;;0.90;0.63;;;22.80;34.90;;;;;;5033068;28;20863;-66
2022/04/01 03:14:13;;;;;;;0.98;0.68;;;22.80;34.90;;;;;;5032994;28;20798;-66
2022/04/01 03:16:39;;;;;;;0.80;0.60;;;22.80;35.00;;;;;;5032731;28;20473;-66
2022/04/01 03:19:08;;;;;;;0.80;0.63;;;22.90;35.00;;;;;;5032676;28;20403;-66
2022/04/01 03:21:35;;;;;;;0.93;0.65;;;22.90;34.90;;;;;;5031840;28;20383;-66
2022/04/01 03:24:02;;;;;;;0.70;0.50;;;22.90;34.90;;;;;;5032318;28;20398;-66
2022/04/01 03:26:28;;;;;;;1.00;0.60;;;22.90;34.70;;;;;;5032659;28;20387;-66
2022/04/01 03:28:55;;;;;;;0.80;0.50;;;22.90;35.20;;;;;;5015093;28;20399;-67
2022/04/01 03:31:20;;;;;;;1.95;0.70;;;22.90;34.70;;;;;;5032193;28;20395;-66
2022/04/01 03:33:46;;;;;;;1.17;0.63;;;22.90;34.70;;;;;;5032467;28;20388;-66
2022/04/01 03:36:13;;;;;;;1.00;0.70;;;22.90;34.70;;;;;;5032746;28;20733;-66
2022/04/01 03:38:39;;;;;;;1.50;0.60;;;22.80;34.70;;;;;;5032400;28;20497;-66
2022/04/01 03:41:05;;;;;;;0.80;0.50;;;22.80;34.70;;;;;;5032070;28;20426;-67
2022/04/01 03:43:34;;;;;;;0.90;0.55;;;22.80;34.70;;;;;;5031854;28;20445;-66
2022/04/01 03:46:08;;;;;;;0.90;0.60;;;22.80;34.60;;;;;;5032047;28;20431;-67
2022/04/01 03:48:54;;;;;;;0.98;0.65;;;22.80;34.70;;;;;;5032292;28;20474;-66
2022/04/01 03:51:24;;;;;;;0.90;0.60;;;22.80;34.70;;;;;;5031922;28;20398;-66
2022/04/01 03:53:55;;;;;;;1.40;0.70;;;22.80;34.60;;;;;;5032293;28;20384;-66
2022/04/01 03:56:23;;;;;;;1.27;0.60;;;22.90;34.80;;;;;;5032033;28;20867;-66
2022/04/01 03:58:50;;;;;;;1.30;0.88;;;22.90;35.20;;;;;;5032155;28;20422;-67
2022/04/01 04:01:15;;;;;;;0.80;0.60;;;22.90;35.20;;;;;;5014080;28;20391;-66
2022/04/01 04:03:44;;;;;;;0.70;0.70;;;23.00;35.10;;;;;;5030898;28;20438;-67
2022/04/01 04:06:10;;;;;;;1.40;0.90;;;23.00;35.30;;;;;;5031973;28;20388;-67
2022/04/01 04:08:37;;;;;;;2.40;1.60;;;23.10;37.50;;;;;;5031965;28;20379;-67
2022/04/01 04:11:04;;;;;;;1.80;1.13;;;23.10;37.50;;;;;;5031690;28;20395;-67
2022/04/01 04:13:29;;;;;;;1.90;1.20;;;23.10;37.20;;;;;;5031613;28;20421;-67
2022/04/01 04:16:04;;;;;;;1.67;0.90;;;23.10;36.90;;;;;;5030918;28;20883;-67
2022/04/01 04:18:40;;;;;;;1.20;0.80;;;23.10;36.30;;;;;;5029455;28;20462;-66
2022/04/01 04:21:10;;;;;;;1.83;0.90;;;23.20;36.90;;;;;;5030591;28;20387;-66
2022/04/01 04:23:47;;;;;;;2.35;0.90;;;23.20;36.90;;;;;;5030987;28;20399;-67
2022/04/01 04:26:19;;;;;;;2.08;0.90;;;23.20;37.00;;;;;;5031158;28;20440;-67
2022/04/01 04:28:49;;;;;;;1.50;0.90;;;23.20;37.10;;;;;;5031625;28;20426;-68
2022/04/01 04:31:21;;;;;;;1.30;0.80;;;23.20;36.60;;;;;;5033422;28;20396;-66
2022/04/01 04:33:47;;;;;;;2.08;0.63;;;23.30;37.30;;;;;;5060369;28;20744;-67
2022/04/01 04:36:19;;;;;;;1.63;0.90;;;23.30;37.60;;;;;;5040849;28;20385;-67
2022/04/01 04:38:48;;;;;;;1.08;0.70;;;23.30;37.10;;;;;;5051178;28;20420;-66
2022/04/01 04:41:13;;;;;;;1.73;0.70;;;23.30;37.10;;;;;;5029994;28;20402;-66
2022/04/01 04:43:42;;;;;;;1.17;0.60;;;23.20;36.40;;;;;;5031339;28;20395;-67
2022/04/01 04:46:08;;;;;;;1.20;0.70;;;23.20;36.00;;;;;;5015814;28;20410;-66
2022/04/01 04:48:36;;;;;;;1.50;0.80;;;23.20;35.60;;;;;;5033583;28;20505;-66
2022/04/01 04:51:03;;;;;;;1.33;0.60;;;23.10;35.80;;;;;;5031430;28;20390;-67
2022/04/01 04:53:31;;;;;;;1.45;0.50;;;23.20;36.10;;;;;;5044029;28;20400;-67
2022/04/01 04:56:04;;;;;;;2.55;0.80;;;23.20;36.10;;;;;;5032978;28;20395;-66
2022/04/01 04:58:39;;;;;;;1.88;0.63;;;23.20;35.90;;;;;;5031098;28;20422;-66
2022/04/01 05:01:38;;;;;;;2.17;0.80;;;23.20;35.70;;;;;;5031191;28;20386;-67
2022/04/01 05:04:27;;;;;;;2.33;0.93;;;23.30;35.20;;;;;;5030469;28;20928;-66
2022/04/01 05:07:27;;;;;;;9.90;1.40;;;23.20;35.00;;;;;;5051139;28;20461;-66
2022/04/01 05:10:16;;;;;;;4.40;0.80;;;23.10;34.90;;;;;;5066518;28;20405;-66
2022/04/01 05:13:08;;;;;;;3.53;0.82;;;23.10;34.80;;;;;;5051198;28;20393;-66
2022/04/01 05:15:36;;;;;;;3.08;0.70;;;23.10;34.80;;;;;;5050484;28;20753;-66
2022/04/01 05:18:15;;;;;;;3.47;1.00;;;23.10;34.70;;;;;;5051054;28;20416;-66
2022/04/01 05:20:55;;;;;;;3.88;0.88;;;23.00;34.90;;;;;;5050545;28;20424;-67
2022/04/01 05:23:50;;;;;;;3.55;0.90;;;23.10;35.40;;;;;;5050375;28;20389;-66
2022/04/01 05:26:23;;;;;;;4.15;1.00;;;23.20;35.90;;;;;;5029577;28;20403;-65
2022/04/01 05:28:53;;;;;;;3.20;0.80;;;23.30;35.90;;;;;;5028840;28;20464;-66
2022/04/01 05:31:24;;;;;;;2.78;1.00;;;23.30;35.70;;;;;;5028772;28;20383;-67
2022/04/01 05:34:04;;;;;;;1.77;0.88;;;23.30;35.80;;;;;;5034151;28;20403;-66
2022/04/01 05:36:30;;;;;;;1.90;1.00;;;23.30;35.80;;;;;;5032492;28;20759;-67
2022/04/01 05:38:57;;;;;;;2.20;0.68;;;23.40;35.70;;;;;;5034481;28;20410;-67
2022/04/01 05:41:23;;;;;;;1.83;0.80;;;23.40;35.30;;;;;;5034157;28;20490;-68
2022/04/01 05:43:50;;;;;;;2.75;0.98;;;23.30;35.00;;;;;;5034737;28;20872;-68
2022/04/01 05:46:16;;;;;;;1.98;0.90;;;23.20;34.80;;;;;;5034519;28;20408;-68
2022/04/01 05:48:42;;;;;;;1.75;0.70;;;23.20;34.60;;;;;;5034644;28;20460;-67
2022/04/01 05:51:13;;;;;;;1.55;0.80;;;23.20;34.50;;;;;;5035041;28;20379;-66
2022/04/01 05:53:39;;;;;;;2.15;0.80;;;23.10;34.30;;;;;;5034044;28;20469;-67
2022/04/01 05:56:07;;;;;;;1.35;0.70;;;23.10;34.20;;;;;;5033975;28;20399;-68
2022/04/01 05:58:33;;;;;;;1.50;0.70;;;23.00;34.20;;;;;;5034020;28;20451;-66
2022/04/01 06:01:36;;;;;;;1.60;0.80;;;23.00;34.80;;;;;;5034043;28;20552;-67
2022/04/01 06:04:30;;;;;;;1.53;0.67;;;23.00;34.10;;;;;;5034156;28;20449;-67
2022/04/01 06:07:21;;;;;;;2.13;0.75;;;23.10;34.70;;;;;;5033773;28;20379;-67
2022/04/01 06:09:50;;;;;;;3.35;0.70;;;23.10;35.40;;;;;;4999962;28;20398;-67
2022/04/01 06:12:31;;;;;;;3.83;1.00;;;23.10;36.10;;;;;;5034432;28;20763;-67
2022/04/01 06:15:23;;;;;;;3.42;1.02;;;23.20;35.80;;;;;;5033105;28;20387;-67
2022/04/01 06:18:07;;;;;;;2.13;0.90;;;23.10;35.90;;;;;;5033839;28;20411;-65
2022/04/01 06:20:37;;;;;;;1.80;1.10;;;22.90;35.50;;;;;;5033018;28;20452;-68
2022/04/01 06:23:30;;;;;;;2.47;0.82;;;22.90;35.20;;;;;;5032886;28;20732;-68
2022/04/01 06:25:59;;;;;;;2.00;0.90;;;23.00;36.40;;;;;;5033988;28;20478;-68
2022/04/01 06:28:30;;;;;;;2.40;0.88;;;23.10;36.20;;;;;;5032918;28;20405;-68
2022/04/01 06:31:06;;;;;;;2.50;1.10;;;23.10;36.30;;;;;;5034268;28;20387;-66
2022/04/01 06:34:02;;;;;;;3.25;0.93;;;23.10;36.60;;;;;;5033575;28;20469;-67
2022/04/01 06:36:42;;;;;;;1.38;1.00;;;23.20;36.70;;;;;;5033191;28;20395;-68
2022/04/01 06:39:10;;;;;;;1.37;0.90;;;23.10;36.30;;;;;;5033942;28;20451;-69
2022/04/01 06:41:46;;;;;;;1.58;0.80;;;23.20;36.20;;;;;;5034448;28;20391;-69
2022/04/01 06:44:11;;;;;;;1.92;0.90;;;23.20;36.30;;;;;;5033056;28;20442;-68
2022/04/01 06:46:37;;;;;;;1.88;0.88;;;23.20;36.40;;;;;;5032853;28;20817;-69
2022/04/01 06:49:08;;;;;;;1.20;0.90;;;23.20;36.30;;;;;;5033503;28;20763;-69
2022/04/01 06:51:36;;;;;;;4.25;1.05;;;23.20;36.10;;;;;;5034535;28;20831;-69
2022/04/01 06:54:04;;;;;;;1.80;0.97;;;23.20;35.40;;;;;;5033724;28;20744;-68
2022/04/01 06:56:30;;;;;;;2.30;0.80;;;23.20;35.80;;;;;;5032702;28;20419;-69
2022/04/01 06:58:56;;;;;;;1.80;0.90;;;23.20;36.20;;;;;;5033879;28;20407;-69
2022/04/01 07:01:22;;;;;;;2.50;0.90;;;23.20;36.00;;;;;;5033248;28;20395;-68
2022/04/01 07:03:48;;;;;;;4.15;0.82;;;23.20;35.90;;;;;;5033299;28;20402;-69
2022/04/01 07:06:15;;;;;;;1.70;0.70;;;23.20;35.80;;;;;;5031718;28;20439;-69
2022/04/01 07:08:42;;;;;;;1.00;0.80;;;23.20;35.50;;;;;;5032674;28;20395;-70
2022/04/01 07:11:08;;;;;;;1.10;0.60;;;23.20;35.50;;;;;;5034647;28;20544;-69
2022/04/01 07:13:33;;;;;;;1.58;0.80;;;23.10;35.40;;;;;;5033936;28;20441;-69
2022/04/01 07:15:59;;;;;;;2.50;0.60;;;23.20;35.70;;;;;;5033562;28;20787;-69
2022/04/01 07:18:29;;;;;;;1.20;0.68;;;23.20;35.60;;;;;;5031964;28;20461;-68
2022/04/01 07:20:55;;;;;;;1.60;0.70;;;23.20;35.50;;;;;;5030578;28;20422;-69
2022/04/01 07:23:22;;;;;;;1.63;0.68;;;23.20;35.00;;;;;;5030643;28;20399;-68
2022/04/01 07:25:47;;;;;;;2.30;0.80;;;23.20;34.90;;;;;;5031007;28;20975;-69
2022/04/01 07:28:13;;;;;;;2.13;0.70;;;23.20;35.50;;;;;;5032428;28;20430;-69
2022/04/01 07:30:39;;;;;;;2.25;0.90;;;23.20;35.70;;;;;;5031769;28;20417;-69
2022/04/01 07:33:05;;;;;;;2.23;0.60;;;23.20;35.50;;;;;;5031661;28;20395;-69
2022/04/01 07:35:31;;;;;;;2.45;0.77;;;23.20;35.60;;;;;;5029137;28;20433;-68
2022/04/01 07:37:57;;;;;;;1.83;0.70;;;23.20;35.50;;;;;;5032451;28;20487;-69
2022/04/01 07:40:25;;;;;;;0.95;0.70;;;23.20;35.40;;;;;;5030591;28;20383;-68
2022/04/01 07:42:53;;;;;;;1.65;0.70;;;23.30;35.70;;;;;;5030443;28;20402;-68
2022/04/01 07:45:20;;;;;;;1.40;0.73;;;23.30;35.30;;;;;;5014899;28;20391;-69
2022/04/01 07:47:47;;;;;;;2.53;0.85;;;23.30;34.80;;;;;;5014790;28;20442;-68
2022/04/01 07:50:14;;;;;;;1.83;0.82;;;23.20;34.90;;;;;;5032428;28;20387;-69
2022/04/01 07:52:42;;;;;;;2.67;0.80;;;23.20;34.50;;;;;;5033075;28;20406;-69
2022/04/01 07:55:10;;;;;;;2.13;0.73;;;23.10;34.90;;;;;;5031120;28;20481;-69
2022/04/01 07:57:37;;;;;;;4.07;0.95;;;23.10;35.80;;;;;;5031519;28;20415;-69
2022/04/01 08:00:04;;;;;;;3.10;0.77;;;23.20;35.90;;;;;;5032398;28;20437;-69
2022/04/01 08:02:30;;;;;;;2.92;0.93;;;23.30;36.10;;;;;;5032427;28;20383;-69
2022/04/01 08:04:56;;;;;;;3.30;0.70;;;23.30;35.80;;;;;;5033103;28;20461;-69
2022/04/01 08:07:22;;;;;;;2.30;0.90;;;23.40;36.20;;;;;;5030894;28;20402;-68
2022/04/01 08:09:49;;;;;;;2.20;0.73;;;23.40;35.80;;;;;;5032843;28;20437;-68
2022/04/01 08:12:15;;;;;;;3.77;0.90;;;23.30;35.50;;;;;;5013039;28;21017;-68
2022/04/01 08:14:45;;;;;;;2.15;0.80;;;23.30;35.70;;;;;;5031850;28;20502;-69
2022/04/01 08:17:12;;;;;;;1.20;0.80;;;23.30;35.90;;;;;;5029805;28;20407;-69
2022/04/01 08:19:39;;;;;;;2.03;0.50;;;23.30;35.70;;;;;;5026865;28;20407;-68
2022/04/01 08:22:05;;;;;;;1.48;0.70;;;23.30;35.70;;;;;;5030190;28;20454;-68
2022/04/01 08:24:31;;;;;;;1.20;0.68;;;23.30;34.90;;;;;;5012372;28;20441;-69
2022/04/01 08:27:00;;;;;;;2.10;0.73;;;23.30;35.30;;;;;;5031682;28;20415;-68
2022/04/01 08:29:27;;;;;;;2.03;0.70;;;23.30;35.30;;;;;;5030750;28;20427;-68
2022/04/01 08:31:59;;;;;;;1.27;0.80;;;23.40;35.40;;;;;;5030081;28;20868;-69
2022/04/01 08:34:25;;;;;;;1.15;0.63;;;23.40;35.40;;;;;;5028325;28;20453;-68
2022/04/01 08:36:51;;;;;;;2.58;0.60;;;23.40;35.30;;;;;;5030547;28;20827;-69
2022/04/01 08:39:18;;;;;;;1.65;0.70;;;23.40;35.10;;;;;;5029041;28;20407;-68
2022/04/01 08:41:43;;;;;;;1.67;0.70;;;23.40;35.00;;;;;;5028684;28;20413;-69
2022/04/01 08:44:09;;;;;;;1.70;0.70;;;23.40;34.90;;;;;;5030432;28;20442;-68
2022/04/01 08:46:35;;;;;;;1.30;0.63;;;23.40;35.00;;;;;;5030373;28;20399;-69
2022/04/01 08:49:01;;;;;;;1.63;0.70;;;23.40;34.80;;;;;;5030777;28;20405;-69
2022/04/01 08:51:28;;;;;;;1.00;0.60;;;23.40;34.80;;;;;;5030545;28;20409;-69
2022/04/01 08:53:54;;;;;;;0.80;0.60;;;23.40;34.80;;;;;;5028898;28;20402;-69
2022/04/01 08:56:20;;;;;;;2.75;0.80;;;23.50;34.60;;;;;;5029560;28;20399;-69
2022/04/01 08:58:46;;;;;;;1.50;0.68;;;23.50;34.50;;;;;;5031442;28;20767;-69
2022/04/01 09:01:13;;;;;;;1.27;0.75;;;23.40;34.50;;;;;;5032101;28;20394;-69
2022/04/01 09:03:40;;;;;;;0.80;0.60;;;23.40;34.30;;;;;;5031247;28;20391;-68
2022/04/01 09:06:07;;;;;;;0.82;0.65;;;23.40;34.20;;;;;;5032553;28;20982;-68
2022/04/01 09:08:35;;;;;;;1.40;0.60;;;23.40;34.20;;;;;;5033978;28;20962;-68
2022/04/01 09:11:05;;;;;;;1.90;0.60;;;23.40;34.10;;;;;;5033830;28;20391;-69
2022/04/01 09:13:48;;;;;;;0.93;0.60;;;23.40;34.00;;;;;;5034917;28;20402;-68
2022/04/01 09:16:38;;;;;;;1.30;0.70;;;23.40;34.00;;;;;;5035295;28;20390;-69
2022/04/01 09:19:08;;;;;;;1.02;0.63;;;23.30;34.00;;;;;;5034881;28;20446;-68
2022/04/01 09:21:39;;;;;;;1.00;0.60;;;23.30;34.00;;;;;;5034940;28;20450;-68
2022/04/01 09:24:06;;;;;;;1.10;0.60;;;23.30;34.00;;;;;;5035239;28;20395;-69
2022/04/01 09:26:40;;;;;;;0.73;0.60;;;23.30;34.00;;;;;;5034254;28;20879;-68
2022/04/01 09:29:09;;;;;;;1.65;0.60;;;23.30;34.00;;;;;;5035053;28;20391;-69
2022/04/01 09:31:40;;;;;;;0.70;0.50;;;23.30;34.00;;;;;;5017146;28;20402;-69
2022/04/01 09:34:09;;;;;;;1.00;0.60;;;23.30;33.90;;;;;;5034821;28;20410;-69
2022/04/01 09:36:38;;;;;;;0.93;0.50;;;23.30;33.90;;;;;;5035177;28;20414;-69
2022/04/01 09:39:07;;;;;;;0.80;0.50;;;23.30;33.90;;;;;;5035472;28;20459;-69
2022/04/01 09:41:45;;;;;;;0.88;0.63;;;23.30;33.90;;;;;;5034666;28;20379;-68
2022/04/01 09:44:18;;;;;;;0.50;0.40;;;23.30;33.90;;;;;;5034908;28;20448;-67
2022/04/01 09:46:50;;;;;;;1.50;0.50;;;23.30;33.80;;;;;;5034424;28;20926;-69
2022/04/01 09:49:39;;;;;;;1.80;0.60;;;23.20;34.60;;;;;;5034440;28;20402;-68
2022/04/01 09:52:18;;;;;;;2.58;0.60;;;23.20;35.10;;;;;;5033216;28;20453;-67
2022/04/01 09:54:51;;;;;;;2.33;0.68;;;23.20;35.00;;;;;;5034046;28;20448;-68
2022/04/01 09:57:19;;;;;;;1.30;0.52;;;23.20;35.30;;;;;;5034165;28;20407;-67
2022/04/01 09:59:47;;;;;;;1.30;0.63;;;23.20;35.80;;;;;;5033553;28;20411;-67
2022/04/01 10:02:13;;;;;;;1.50;0.80;;;23.30;35.60;;;;;;5038270;28;20441;-68
2022/04/01 10:04:39;;;;;;;0.98;0.60;;;23.30;35.30;;;;;;5034194;28;20873;-67
2022/04/01 10:07:05;;;;;;;1.60;0.60;;;23.30;35.70;;;;;;5016801;28;21001;-67
2022/04/01 10:09:31;;;;;;;1.30;0.43;;;23.30;35.50;;;;;;5015607;28;20500;-67
2022/04/01 10:12:01;;;;;;;1.08;0.40;;;23.30;35.20;;;;;;5016153;28;20392;-67
2022/04/01 10:14:27;;;;;;;1.60;0.40;;;23.30;34.90;;;;;;5034052;28;20887;-67
2022/04/01 10:16:55;;;;;;;1.35;0.50;;;23.40;35.30;;;;;;5031991;28;20400;-67
2022/04/01 10:19:32;;;;;;;0.95;0.63;;;23.40;35.10;;;;;;5033079;28;20478;-67
2022/04/01 10:21:59;;;;;;;3.95;0.70;;;23.40;35.00;;;;;;5015703;28;20391;-67
2022/04/01 10:24:47;;;;;;;1.50;0.60;;;23.40;35.60;;;;;;5016439;28;20388;-67
2022/04/01 10:27:37;;;;;;;1.45;0.47;;;23.40;35.40;;;;;;5032420;28;20387;-67
2022/04/01 10:30:04;;;;;;;1.20;0.50;;;23.40;35.70;;;;;;5033700;28;20395;-67
2022/04/01 10:32:38;;;;;;;1.25;0.50;;;23.50;35.50;;;;;;5033556;28;20383;-69
2022/04/01 10:35:07;;;;;;;1.45;0.50;;;23.50;35.50;;;;;;5033870;28;20387;-67
2022/04/01 10:37:34;;;;;;;2.08;0.50;;;23.50;35.50;;;;;;5033119;28;20422;-66
2022/04/01 10:40:15;;;;;;;2.10;0.50;;;23.50;35.20;;;;;;5033482;28;20391;-66
2022/04/01 10:42:41;;;;;;;1.35;0.40;;;23.50;35.30;;;;;;5033601;28;20390;-66
2022/04/01 10:45:27;;;;;;;1.33;0.52;;;23.50;35.40;;;;;;5033672;28;20482;-67
2022/04/01 10:53:49;;;;;;;3.05;0.93;;;23.50;35.10;;;;;;5033212;28;20441;-68
2022/04/01 10:56:23;;;;;;;4.17;1.00;;;23.50;35.70;;;;;;5033656;28;20809;-67
2022/04/01 10:59:15;;;;;;;1.80;0.70;;;23.60;36.20;;;;;;5034074;28;20982;-67
2022/04/01 11:01:52;;;;;;;2.95;0.60;;;23.70;36.10;;;;;;5033007;28;20440;-68
2022/04/01 11:04:18;;;;;;;1.30;0.70;;;23.70;35.80;;;;;;5032059;28;20911;-67
2022/04/01 11:06:49;;;;;;;2.10;0.70;;;23.70;35.40;;;;;;5033728;28;20395;-67
2022/04/01 11:09:50;;;;;;;4.20;0.80;;;23.70;35.60;;;;;;5031958;28;20391;-68
2022/04/01 11:12:27;;;;;;;1.15;0.60;;;23.70;35.90;;;;;;5032929;28;20395;-67
2022/04/01 11:15:08;;;;;;;3.35;0.80;;;23.70;36.00;;;;;;5031819;28;20453;-66
2022/04/01 11:17:34;;;;;;;2.10;0.70;;;23.70;35.80;;;;;;5032439;28;20411;-67
2022/04/01 11:20:05;;;;;;;1.67;0.70;;;23.70;35.70;;;;;;5033444;28;20410;-69
2022/04/01 11:22:52;;;;;;;3.00;0.50;;;23.60;35.20;;;;;;5033692;28;20457;-65
2022/04/01 11:25:32;;;;;;;3.08;0.65;;;23.60;35.30;;;;;;5033392;28;20399;-67
2022/04/01 11:28:11;;;;;;;2.83;0.80;;;23.70;35.50;;;;;;5032160;28;20529;-66
2022/04/01 11:30:51;;;;;;;1.88;0.75;;;23.70;35.70;;;;;;5031877;28;20395;-66
2022/04/01 11:33:19;;;;;;;2.00;0.70;;;23.80;35.50;;;;;;5031798;28;20752;-66
2022/04/01 11:35:53;;;;;;;2.25;0.60;;;23.70;35.10;;;;;;5032587;28;20391;-66
2022/04/01 11:38:24;;;;;;;1.92;0.55;;;23.60;35.10;;;;;;5034288;28;20608;-68
2022/04/01 11:40:56;;;;;;;3.28;0.70;;;23.60;35.60;;;;;;5032271;28;20394;-67
2022/04/01 11:43:23;;;;;;;2.63;0.70;;;23.60;35.50;;;;;;5031310;28;20482;-68
2022/04/01 11:46:03;;;;;;;3.72;0.93;;;23.70;35.50;;;;;;5030587;28;20748;-67
2022/04/01 11:48:37;;;;;;;4.32;0.68;;;23.70;35.40;;;;;;5032367;28;20395;-68
2022/04/01 11:51:13;;;;;;;1.57;0.50;;;23.70;35.60;;;;;;5032306;28;20458;-68
2022/04/01 11:53:51;;;;;;;3.28;0.70;;;23.70;35.30;;;;;;5031851;28;20410;-68
2022/04/01 11:56:19;;;;;;;2.78;0.73;;;23.70;35.40;;;;;;5032476;28;20387;-67
2022/04/01 11:59:05;;;;;;;3.72;0.60;;;23.80;36.00;;;;;;5030351;28;20494;-67
2022/04/01 12:01:33;;;;;;;1.80;0.50;;;23.80;36.60;;;;;;5030412;28;20398;-68
2022/04/01 12:04:04;;;;;;;2.72;0.50;;;23.90;36.20;;;;;;5034313;28;20485;-67
2022/04/01 12:09:14;;;;;;;2.60;0.50;;;23.90;36.50;;;;;;5033227;28;20887;-67
2022/04/01 12:11:47;;;;;;;0.95;0.50;;;24.00;36.30;;;;;;5032818;28;20399;-68
2022/04/01 12:14:26;;;;;;;1.52;0.60;;;24.00;36.10;;;;;;5030730;28;20494;-67
2022/04/01 12:16:52;;;;;;;2.20;0.60;;;24.00;36.10;;;;;;5030600;28;20445;-67
2022/04/01 12:19:22;;;;;;;1.80;0.60;;;24.00;36.00;;;;;;5028915;28;20399;-68
2022/04/01 12:21:50;;;;;;;3.35;0.50;;;24.00;36.50;;;;;;5030272;28;20921;-68
2022/04/01 12:24:17;;;;;;;1.67;0.50;;;24.00;36.10;;;;;;5012831;28;20395;-67
2022/04/01 12:26:46;;;;;;;2.33;0.60;;;24.00;36.10;;;;;;5030018;28;20419;-68
2022/04/01 12:29:19;;;;;;;2.60;0.50;;;24.00;36.30;;;;;;5029047;28;20490;-68
2022/04/01 12:31:50;;;;;;;2.63;0.60;;;24.00;36.20;;;;;;5027694;28;20461;-66
2022/04/01 12:34:16;;;;;;;2.22;0.50;;;24.10;36.10;;;;;;5030277;28;20394;-66
2022/04/01 12:36:42;;;;;;;1.50;0.40;;;23.90;35.80;;;;;;5030394;28;20394;-67
2022/04/01 12:39:12;;;;;;;2.40;0.50;;;24.00;36.40;;;;;;5029359;28;20411;-67
2022/04/01 12:41:55;;;;;;;1.90;0.50;;;24.00;36.20;;;;;;5026004;28;20541;-67
2022/04/01 12:44:23;;;;;;;1.88;0.70;;;24.00;36.30;;;;;;5032431;28;20394;-66
2022/04/01 12:46:49;;;;;;;2.33;0.47;;;24.10;36.20;;;;;;5031314;28;20415;-66
2022/04/01 12:49:23;;;;;;;0.90;0.40;;;24.10;36.10;;;;;;5031011;28;20875;-66
2022/04/01 12:52:15;;;;;;;2.08;0.50;;;24.10;36.00;;;;;;5031740;28;20391;-66
2022/04/01 12:54:47;;;;;;;1.00;0.50;;;24.00;36.10;;;;;;5030838;28;20457;-65
2022/04/01 12:57:13;;;;;;;1.55;0.50;;;24.00;36.00;;;;;;5029927;28;20479;-67
2022/04/01 12:59:45;;;;;;;1.70;0.50;;;23.90;36.30;;;;;;5030227;28;20498;-67
2022/04/01 13:02:16;;;;;;;0.80;0.45;;;23.90;36.00;;;;;;5033541;28;20396;-66
2022/04/01 13:04:48;;;;;;;1.10;0.40;;;24.00;35.90;;;;;;5030834;28;20862;-66
2022/04/01 13:07:21;;;;;;;1.42;0.50;;;23.90;36.00;;;;;;5044957;28;20736;-66
2022/04/01 13:09:55;;;;;;;2.08;0.45;;;23.90;35.90;;;;;;5030243;28;20822;-65
2022/04/01 13:12:24;;;;;;;1.80;0.50;;;23.90;35.90;;;;;;5015798;28;20397;-64
2022/04/01 13:14:57;;;;;;;0.82;0.50;;;23.90;35.90;;;;;;5030703;28;20397;-66
2022/04/01 13:17:23;;;;;;;1.55;0.50;;;24.00;35.80;;;;;;5031789;28;20398;-66